createdAt,value
2023-01-19T00:00:49.511Z,99217.09
2023-01-19T00:03:16.341Z,99216.75
2023-01-19T00:05:43.857Z,99220.88
2023-01-19T00:08:17.624Z,99211.34
2023-01-19T00:10:50.891Z,99210.28
2023-01-19T00:13:17.744Z,99207.50
2023-01-19T00:15:45.319Z,99202.13
2023-01-19T00:18:12.052Z,99199.72
2023-01-19T00:20:42.045Z,99195.19
2023-01-19T00:23:09.367Z,99210.06
2023-01-19T00:25:42.200Z,99233.38
2023-01-19T00:28:10.278Z,99233.38
2023-01-19T00:30:37.507Z,99228.03
2023-01-19T00:33:04.345Z,99228.81
2023-01-19T00:35:31.301Z,99226.34
2023-01-19T00:37:58.992Z,99223.28
2023-01-19T00:40:25.749Z,99230.22
2023-01-19T00:42:52.548Z,99235.19
2023-01-19T00:45:22.055Z,99224.47
2023-01-19T00:47:50.183Z,99232.91
2023-01-19T00:50:17.301Z,99223.53
2023-01-19T00:52:45.473Z,99229.84
2023-01-19T00:55:14.240Z,99241.53
2023-01-19T00:57:41.293Z,99240.75
2023-01-19T01:00:11.873Z,99240.34
2023-01-19T01:02:39.917Z,99231.75
2023-01-19T01:05:07.397Z,99236.03
2023-01-19T01:07:40.696Z,99232.97
2023-01-19T01:10:27.929Z,99234.44
2023-01-19T01:13:20.554Z,99240.34
2023-01-19T01:15:41.837Z,99239.16
2023-01-19T01:18:08.569Z,99242.63
2023-01-19T01:20:37.364Z,99238.28
2023-01-19T01:23:04.298Z,99226.22
2023-01-19T01:25:31.485Z,99234.25
2023-01-19T01:27:58.047Z,99240.44
2023-01-19T01:30:24.720Z,99245.44
2023-01-19T01:32:51.282Z,99238.66
2023-01-19T01:35:18.114Z,99246.25
2023-01-19T01:37:44.744Z,99241.66
2023-01-19T01:40:14.133Z,99243.94
2023-01-19T01:42:42.326Z,99240.47
2023-01-19T01:45:40.839Z,99234.53
2023-01-19T01:48:13.229Z,99235.91
2023-01-19T01:51:11.080Z,99229.56
2023-01-19T01:53:39.413Z,99239.16
2023-01-19T01:56:10.013Z,99238.53
2023-01-19T01:58:37.735Z,99238.06
2023-01-19T02:01:24.590Z,99236.25
2023-01-19T02:03:51.848Z,99230.63
2023-01-19T02:06:18.489Z,99232.16
2023-01-19T02:09:12.125Z,99236.47
2023-01-19T02:11:57.902Z,99242.03
2023-01-19T02:14:24.421Z,99227.78
2023-01-19T02:16:51.184Z,99235.91
2023-01-19T02:19:37.552Z,99228.56
2023-01-19T02:22:11.788Z,99230.63
2023-01-19T02:24:38.509Z,99228.63
2023-01-19T02:27:05.334Z,99228.22
2023-01-19T02:29:32.691Z,99228.63
2023-01-19T02:31:59.761Z,99223.25
2023-01-19T02:34:26.555Z,99221.72
2023-01-19T02:36:56.455Z,99221.44
2023-01-19T02:39:45.232Z,99220.09
2023-01-19T02:42:19.345Z,99226.31
2023-01-19T02:44:49.009Z,99215.94
2023-01-19T02:47:16.073Z,99221.25
2023-01-19T02:49:42.621Z,99224.09
2023-01-19T02:52:17.231Z,99216.63
2023-01-19T02:55:05.807Z,99221.28
2023-01-19T02:57:32.352Z,99222.38
2023-01-19T03:00:21.126Z,99225.00
2023-01-19T03:02:57.846Z,99216.81
2023-01-19T03:05:48.967Z,99219.22
2023-01-19T03:08:35.725Z,99215.72
2023-01-19T03:11:09.714Z,99210.22
2023-01-19T03:13:42.664Z,99206.84
2023-01-19T03:16:36.469Z,99199.31
2023-01-19T03:19:10.729Z,99200.38
2023-01-19T03:21:39.710Z,99204.44
2023-01-19T03:24:10.412Z,99211.03
2023-01-19T03:26:47.840Z,99204.94
2023-01-19T03:29:17.373Z,99203.28
2023-01-19T03:31:47.680Z,99211.00
2023-01-19T03:34:16.922Z,99209.53
2023-01-19T03:36:49.015Z,99205.69
2023-01-19T03:39:21.450Z,99196.22
2023-01-19T03:41:49.822Z,99196.97
2023-01-19T03:44:16.996Z,99204.31
2023-01-19T03:46:45.931Z,99204.44
2023-01-19T03:49:12.553Z,99203.03
2023-01-19T03:51:39.680Z,99196.09
2023-01-19T03:54:07.631Z,99206.34
2023-01-19T03:56:34.267Z,99208.19
2023-01-19T03:59:00.863Z,99203.28
2023-01-19T04:01:27.766Z,99201.50
2023-01-19T04:03:54.547Z,99216.97
2023-01-19T04:06:21.360Z,99204.66
2023-01-19T04:08:49.846Z,99206.41
2023-01-19T04:11:16.820Z,99213.34
2023-01-19T04:13:44.671Z,99204.22
2023-01-19T04:16:12.157Z,99206.69
2023-01-19T04:18:40.467Z,99208.09
2023-01-19T04:21:07.892Z,99216.19
2023-01-19T04:23:34.883Z,99212.81
2023-01-19T04:26:04.131Z,99212.97
2023-01-19T04:28:31.730Z,99211.28
2023-01-19T04:30:58.618Z,99204.00
2023-01-19T04:33:27.681Z,99212.50
2023-01-19T04:35:55.965Z,99198.47
2023-01-19T04:38:23.935Z,99198.63
2023-01-19T04:40:52.540Z,99202.91
2023-01-19T04:43:23.062Z,99195.63
2023-01-19T04:45:50.696Z,99195.25
2023-01-19T04:48:18.486Z,99201.53
2023-01-19T04:50:45.496Z,99201.44
2023-01-19T04:53:13.569Z,99207.53
2023-01-19T04:55:40.589Z,99210.53
2023-01-19T04:58:07.160Z,99211.25
2023-01-19T05:00:33.806Z,99199.91
2023-01-19T05:03:01.555Z,99216.75
2023-01-19T05:05:28.742Z,99216.03
2023-01-19T05:07:55.423Z,99207.81
2023-01-19T05:10:22.005Z,99219.16
2023-01-19T05:12:48.637Z,99213.78
2023-01-19T05:15:15.267Z,99215.91
2023-01-19T05:17:42.014Z,99216.41
2023-01-19T05:20:11.075Z,99213.25
2023-01-19T05:22:39.090Z,99218.88
2023-01-19T05:25:08.689Z,99220.66
2023-01-19T05:27:36.720Z,99220.19
2023-01-19T05:30:05.030Z,99228.38
2023-01-19T05:32:31.615Z,99228.22
2023-01-19T05:34:58.289Z,99228.19
2023-01-19T05:37:24.898Z,99233.00
2023-01-19T05:39:51.783Z,99230.03
2023-01-19T05:42:18.321Z,99230.75
2023-01-19T05:44:44.939Z,99229.03
2023-01-19T05:47:11.735Z,99233.44
2023-01-19T05:49:38.393Z,99233.81
2023-01-19T05:52:04.919Z,99232.44
2023-01-19T05:54:31.455Z,99237.84
2023-01-19T05:56:58.179Z,99231.69
2023-01-19T05:59:24.783Z,99234.06
2023-01-19T06:01:52.506Z,99220.28
2023-01-19T06:04:20.129Z,99229.69
2023-01-19T06:06:50.713Z,99235.84
2023-01-19T06:09:17.815Z,99238.66
2023-01-19T06:11:45.474Z,99242.81
2023-01-19T06:14:12.486Z,99243.00
2023-01-19T06:16:39.810Z,99257.50
2023-01-19T06:19:06.807Z,99259.47
2023-01-19T06:21:34.276Z,99266.69
2023-01-19T06:24:01.160Z,99262.56
2023-01-19T06:26:27.739Z,99252.31
2023-01-19T06:28:54.378Z,99268.50
2023-01-19T06:31:21.177Z,99274.50
2023-01-19T06:33:48.025Z,99271.22
2023-01-19T06:36:14.617Z,99273.22
2023-01-19T06:38:41.236Z,99275.94
2023-01-19T06:41:07.791Z,99276.91
2023-01-19T06:43:34.433Z,99278.44
2023-01-19T06:46:01.146Z,99288.81
2023-01-19T06:48:28.069Z,99290.00
2023-01-19T06:50:54.895Z,99299.44
2023-01-19T06:53:22.339Z,99293.28
2023-01-19T06:55:48.985Z,99306.06
2023-01-19T06:58:16.021Z,99301.13
2023-01-19T07:00:43.055Z,99312.97
2023-01-19T07:03:18.639Z,99313.84
2023-01-19T07:05:45.235Z,99319.13
2023-01-19T07:08:11.862Z,99322.06
2023-01-19T07:11:25.245Z,99326.72
2023-01-19T07:13:25.020Z,99323.13
2023-01-19T07:15:51.615Z,99330.03
2023-01-19T07:18:18.293Z,99330.06
2023-01-19T07:20:46.695Z,99341.47
2023-01-19T07:23:13.250Z,99344.38
2023-01-19T07:25:40.036Z,99348.59
2023-01-19T07:28:06.803Z,99346.06
2023-01-19T07:30:33.484Z,99350.50
2023-01-19T07:33:00.510Z,99351.94
2023-01-19T07:35:27.324Z,99357.88
2023-01-19T07:37:54.063Z,99350.72
2023-01-19T07:40:22.161Z,99357.28
2023-01-19T07:42:51.873Z,99364.22
2023-01-19T07:45:20.504Z,99360.44
2023-01-19T07:47:48.839Z,99365.44
2023-01-19T07:50:17.033Z,99381.47
2023-01-19T07:52:44.627Z,99380.19
2023-01-19T07:55:11.179Z,99384.84
2023-01-19T07:57:37.848Z,99382.78
2023-01-19T08:00:04.988Z,99390.16
2023-01-19T08:02:39.121Z,99393.09
2023-01-19T08:05:06.009Z,99389.66
2023-01-19T08:07:34.539Z,99410.34
2023-01-19T08:10:01.051Z,99419.63
2023-01-19T08:12:27.681Z,99405.75
2023-01-19T08:14:54.332Z,99424.56
2023-01-19T08:17:20.939Z,99431.38
2023-01-19T08:19:47.442Z,99428.28
2023-01-19T08:22:14.230Z,99435.78
2023-01-19T08:24:40.732Z,99436.22
2023-01-19T08:27:09.697Z,99436.84
2023-01-19T08:29:37.103Z,99434.69
2023-01-19T08:32:04.607Z,99446.25
2023-01-19T08:34:31.860Z,99447.31
2023-01-19T08:36:59.427Z,99454.78
2023-01-19T08:39:27.243Z,99456.75
2023-01-19T08:41:54.913Z,99461.13
2023-01-19T08:44:21.693Z,99465.72
2023-01-19T08:46:48.304Z,99473.13
2023-01-19T08:49:15.692Z,99471.34
2023-01-19T08:51:42.273Z,99478.47
2023-01-19T08:54:09.394Z,99476.72
2023-01-19T08:56:36.693Z,99490.00
2023-01-19T08:59:09.906Z,99490.25
2023-01-19T09:01:37.352Z,99494.50
2023-01-19T09:04:04.395Z,99497.22
2023-01-19T09:06:30.987Z,99510.06
2023-01-19T09:08:57.637Z,99504.84
2023-01-19T09:11:24.310Z,99509.25
2023-01-19T09:13:50.818Z,99509.72
2023-01-19T09:16:17.467Z,99514.34
2023-01-19T09:18:45.665Z,99517.31
2023-01-19T09:21:12.339Z,99530.38
2023-01-19T09:23:38.828Z,99529.56
2023-01-19T09:26:06.157Z,99529.13
2023-01-19T09:28:33.061Z,99542.81
2023-01-19T09:31:00.034Z,99537.53
2023-01-19T09:33:26.625Z,99545.75
2023-01-19T09:35:53.302Z,99549.59
2023-01-19T09:38:20.380Z,99556.34
2023-01-19T09:40:55.901Z,99556.56
2023-01-19T09:43:37.336Z,99557.84
2023-01-19T09:46:15.148Z,99561.00
2023-01-19T09:48:52.290Z,99551.94
2023-01-19T09:51:22.900Z,99558.88
2023-01-19T09:53:56.343Z,99559.09
2023-01-19T09:56:23.888Z,99562.91
2023-01-19T09:58:51.575Z,99562.88
2023-01-19T10:01:38.481Z,99571.28
2023-01-19T10:04:31.913Z,99579.75
2023-01-19T10:07:44.184Z,99578.06
2023-01-19T10:10:21.507Z,99581.84
2023-01-19T10:13:11.390Z,99584.84
2023-01-19T10:16:00.955Z,99586.72
2023-01-19T10:18:35.712Z,99603.31
2023-01-19T10:21:10.429Z,99601.72
2023-01-19T10:23:43.642Z,99600.00
2023-01-19T10:26:16.775Z,99600.88
2023-01-19T10:28:46.873Z,99605.31
2023-01-19T10:31:16.898Z,99604.88
2023-01-19T10:33:43.496Z,99612.28
2023-01-19T10:36:17.671Z,99609.31
2023-01-19T10:38:45.084Z,99597.94
2023-01-19T10:41:22.144Z,99602.91
2023-01-19T10:43:49.425Z,99607.59
2023-01-19T10:46:33.921Z,99602.69
2023-01-19T10:49:00.805Z,99619.00
2023-01-19T10:51:28.653Z,99618.03
2023-01-19T10:54:02.972Z,99617.78
2023-01-19T10:56:35.907Z,99621.09
2023-01-19T10:59:06.550Z,99618.97
2023-01-19T11:01:36.931Z,99615.84
2023-01-19T11:04:26.907Z,99613.84
2023-01-19T11:07:13.048Z,99625.31
2023-01-19T11:09:39.577Z,99629.97
2023-01-19T11:12:19.790Z,99626.13
2023-01-19T11:14:47.534Z,99626.16
2023-01-19T11:17:25.169Z,99629.16
2023-01-19T11:19:57.868Z,99627.06
2023-01-19T11:22:33.014Z,99624.94
2023-01-19T11:25:02.026Z,99624.13
2023-01-19T11:27:30.940Z,99619.47
2023-01-19T11:30:17.672Z,99626.22
2023-01-19T11:32:46.573Z,99621.28
2023-01-19T11:35:36.837Z,99620.91
2023-01-19T11:38:12.147Z,99630.03
2023-01-19T11:40:39.121Z,99638.44
2023-01-19T11:43:05.765Z,99629.81
2023-01-19T11:45:34.498Z,99623.44
2023-01-19T11:48:05.773Z,99633.72
2023-01-19T11:50:41.490Z,99632.75
2023-01-19T11:53:28.121Z,99630.88
2023-01-19T11:56:04.654Z,99639.34
2023-01-19T11:58:33.156Z,99628.78
2023-01-19T12:01:10.964Z,99634.69
2023-01-19T12:03:43.119Z,99629.59
2023-01-19T12:06:18.163Z,99627.50
2023-01-19T12:08:49.967Z,99630.44
2023-01-19T12:11:21.506Z,99635.50
2023-01-19T12:13:49.177Z,99641.66
2023-01-19T12:16:26.275Z,99629.59
2023-01-19T12:19:00.465Z,99629.56
2023-01-19T12:21:27.250Z,99637.34
2023-01-19T12:24:17.852Z,99622.44
2023-01-19T12:26:57.056Z,99628.06
2023-01-19T12:29:35.714Z,99631.25
2023-01-19T12:32:14.558Z,99625.34
2023-01-19T12:34:51.940Z,99626.88
2023-01-19T12:37:28.781Z,99629.31
2023-01-19T12:39:57.811Z,99626.53
2023-01-19T12:42:25.843Z,99633.34
2023-01-19T12:45:04.625Z,99634.31
2023-01-19T12:47:31.669Z,99639.38
2023-01-19T12:50:05.741Z,99640.25
2023-01-19T12:52:51.329Z,99639.75
2023-01-19T12:55:23.109Z,99637.63
2023-01-19T12:58:07.173Z,99643.34
2023-01-19T13:00:39.903Z,99639.72
2023-01-19T13:03:18.515Z,99640.69
2023-01-19T13:05:53.119Z,99645.09
2023-01-19T13:08:22.404Z,99643.84
2023-01-19T13:10:54.826Z,99641.75
2023-01-19T13:13:31.554Z,99644.25
2023-01-19T13:16:22.304Z,99649.31
2023-01-19T13:18:55.922Z,99639.59
2023-01-19T13:21:49.562Z,99646.41
2023-01-19T13:24:19.397Z,99654.78
2023-01-19T13:26:49.022Z,99648.66
2023-01-19T13:29:22.650Z,99649.22
2023-01-19T13:31:49.567Z,99649.50
2023-01-19T13:34:22.774Z,99649.38
2023-01-19T13:36:59.242Z,99651.06
2023-01-19T13:39:36.984Z,99655.41
2023-01-19T13:42:18.431Z,99650.69
2023-01-19T13:44:52.327Z,99651.72
2023-01-19T13:47:23.778Z,99658.22
2023-01-19T13:49:55.780Z,99656.22
2023-01-19T13:52:27.519Z,99656.22
2023-01-19T13:54:59.870Z,99663.75
2023-01-19T13:57:33.648Z,99672.75
2023-01-19T14:00:19.462Z,99670.09
2023-01-19T14:02:55.597Z,99670.94
2023-01-19T14:05:37.605Z,99677.38
2023-01-19T14:08:12.303Z,99676.66
2023-01-19T14:10:56.179Z,99687.16
2023-01-19T14:13:25.116Z,99689.31
2023-01-19T14:15:55.260Z,99693.34
2023-01-19T14:18:30.010Z,99699.00
2023-01-19T14:20:58.366Z,99698.22
2023-01-19T14:23:40.299Z,99697.22
2023-01-19T14:26:46.655Z,99692.25
2023-01-19T14:29:21.510Z,99707.50
2023-01-19T14:32:04.915Z,99697.63
2023-01-19T14:34:42.559Z,99706.34
2023-01-19T14:37:22.851Z,99708.09
2023-01-19T14:40:01.583Z,99707.94
2023-01-19T14:42:37.457Z,99714.31
2023-01-19T14:45:16.776Z,99712.34
2023-01-19T14:47:45.583Z,99708.16
2023-01-19T14:50:29.400Z,99721.41
2023-01-19T14:53:04.890Z,99715.94
2023-01-19T14:55:55.435Z,99717.59
2023-01-19T14:58:24.941Z,99709.19
2023-01-19T15:00:55.652Z,99709.97
2023-01-19T15:03:26.868Z,99709.50
2023-01-19T15:06:03.532Z,99716.66
2023-01-19T15:08:33.489Z,99712.66
2023-01-19T15:11:28.526Z,99705.66
2023-01-19T15:13:55.579Z,99711.97
2023-01-19T15:16:23.572Z,99720.59
2023-01-19T15:18:50.348Z,99726.38
2023-01-19T15:21:23.412Z,99726.84
2023-01-19T15:23:50.256Z,99728.41
2023-01-19T15:26:22.081Z,99732.03
2023-01-19T15:28:49.376Z,99731.88
2023-01-19T15:31:18.569Z,99731.72
2023-01-19T15:33:45.898Z,99725.38
2023-01-19T15:36:15.293Z,99739.91
2023-01-19T15:38:43.567Z,99739.28
2023-01-19T15:41:26.580Z,99748.78
2023-01-19T15:43:53.968Z,99742.47
2023-01-19T15:46:20.986Z,99741.09
2023-01-19T15:48:48.339Z,99752.94
2023-01-19T15:51:17.824Z,99750.84
2023-01-19T15:53:45.128Z,99761.31
2023-01-19T15:56:19.520Z,99755.47
2023-01-19T15:58:46.364Z,99762.19
2023-01-19T16:01:15.084Z,99763.94
2023-01-19T16:03:42.527Z,99768.19
2023-01-19T16:06:10.159Z,99773.25
2023-01-19T16:08:37.486Z,99772.31
2023-01-19T16:11:10.337Z,99767.03
2023-01-19T16:13:37.717Z,99777.03
2023-01-19T16:16:06.648Z,99772.19
2023-01-19T16:18:33.738Z,99780.03
2023-01-19T16:21:01.148Z,99782.97
2023-01-19T16:23:27.724Z,99782.97
2023-01-19T16:26:07.646Z,99788.06
2023-01-19T16:28:35.859Z,99781.31
2023-01-19T16:31:02.936Z,99785.94
2023-01-19T16:33:29.981Z,99796.94
2023-01-19T16:35:56.641Z,99789.75
2023-01-19T16:38:23.363Z,99793.59
2023-01-19T16:40:50.042Z,99798.56
2023-01-19T16:43:18.156Z,99798.00
2023-01-19T16:45:58.681Z,99801.56
2023-01-19T16:48:25.992Z,99806.66
2023-01-19T16:51:04.670Z,99809.00
2023-01-19T16:53:34.664Z,99817.03
2023-01-19T16:56:06.497Z,99816.81
2023-01-19T16:58:33.185Z,99813.09
2023-01-19T17:00:59.852Z,99818.41
2023-01-19T17:03:26.976Z,99821.97
2023-01-19T17:05:53.524Z,99829.53
2023-01-19T17:08:20.596Z,99823.25
2023-01-19T17:10:47.928Z,99836.44
2023-01-19T17:13:14.758Z,99827.88
2023-01-19T17:15:41.473Z,99831.94
2023-01-19T17:18:09.965Z,99830.31
2023-01-19T17:20:36.648Z,99831.97
2023-01-19T17:23:03.414Z,99843.75
2023-01-19T17:25:30.068Z,99826.88
2023-01-19T17:27:58.837Z,99835.38
2023-01-19T17:30:25.582Z,99842.19
2023-01-19T17:32:52.689Z,99845.13
2023-01-19T17:35:19.287Z,99842.63
2023-01-19T17:37:46.005Z,99847.25
2023-01-19T17:40:12.762Z,99850.44
2023-01-19T17:42:41.798Z,99849.16
2023-01-19T17:45:10.798Z,99848.91
2023-01-19T17:47:38.476Z,99852.28
2023-01-19T17:50:05.472Z,99857.41
2023-01-19T17:52:32.076Z,99863.31
2023-01-19T17:54:58.613Z,99857.19
2023-01-19T17:57:25.387Z,99855.72
2023-01-19T17:59:51.968Z,99847.88
2023-01-19T18:02:19.037Z,99854.03
2023-01-19T18:04:45.710Z,99851.28
2023-01-19T18:07:12.330Z,99859.06
2023-01-19T18:09:38.817Z,99859.69
2023-01-19T18:12:05.462Z,99850.19
2023-01-19T18:14:31.936Z,99859.91
2023-01-19T18:16:58.512Z,99860.38
2023-01-19T18:19:25.192Z,99867.16
2023-01-19T18:21:51.905Z,99863.09
2023-01-19T18:24:18.586Z,99869.25
2023-01-19T18:26:45.267Z,99882.09
2023-01-19T18:29:11.814Z,99881.69
2023-01-19T18:31:38.399Z,99878.16
2023-01-19T18:34:04.956Z,99871.38
2023-01-19T18:36:32.535Z,99876.03
2023-01-19T18:39:02.277Z,99882.34
2023-01-19T18:41:29.954Z,99876.00
2023-01-19T18:43:58.708Z,99875.19
2023-01-19T18:46:25.944Z,99877.31
2023-01-19T18:48:52.927Z,99881.75
2023-01-19T18:51:19.919Z,99879.00
2023-01-19T18:53:46.628Z,99871.34
2023-01-19T18:56:15.683Z,99871.59
2023-01-19T18:58:43.282Z,99872.22
2023-01-19T19:01:39.411Z,99881.06
2023-01-19T19:04:07.067Z,99873.69
2023-01-19T19:06:34.367Z,99876.00
2023-01-19T19:09:01.018Z,99883.66
2023-01-19T19:11:28.033Z,99881.50
2023-01-19T19:14:00.283Z,99887.44
2023-01-19T19:16:28.401Z,99879.81
2023-01-19T19:18:55.621Z,99887.66
2023-01-19T19:21:25.142Z,99888.69
2023-01-19T19:23:56.462Z,99893.56
2023-01-19T19:26:24.289Z,99897.59
2023-01-19T19:28:50.937Z,99898.25
2023-01-19T19:31:21.140Z,99900.34
2023-01-19T19:33:48.964Z,99898.81
2023-01-19T19:36:15.552Z,99898.59
2023-01-19T19:38:44.264Z,99908.75
2023-01-19T19:41:16.730Z,99912.38
2023-01-19T19:43:43.551Z,99911.09
2023-01-19T19:46:13.786Z,99906.41
2023-01-19T19:48:40.465Z,99918.75
2023-01-19T19:51:18.046Z,99915.97
2023-01-19T19:53:46.135Z,99919.59
2023-01-19T19:56:13.404Z,99919.75
2023-01-19T19:58:41.895Z,99914.06
2023-01-19T20:01:11.157Z,99913.66
2023-01-19T20:03:38.578Z,99914.91
2023-01-19T20:06:10.452Z,99911.34
2023-01-19T20:08:37.089Z,99920.84
2023-01-19T20:11:09.236Z,99916.41
2023-01-19T20:13:38.328Z,99932.06
2023-01-19T20:16:09.983Z,99933.56
2023-01-19T20:18:38.713Z,99926.78
2023-01-19T20:21:12.968Z,99934.38
2023-01-19T20:23:40.557Z,99929.50
2023-01-19T20:26:09.128Z,99932.59
2023-01-19T20:28:37.235Z,99931.56
2023-01-19T20:31:19.256Z,99942.38
2023-01-19T20:33:47.901Z,99936.59
2023-01-19T20:36:15.181Z,99942.56
2023-01-19T20:38:42.401Z,99939.22
2023-01-19T20:41:10.437Z,99948.50
2023-01-19T20:43:37.423Z,99957.03
2023-01-19T20:46:04.329Z,99942.91
2023-01-19T20:48:31.299Z,99959.56
2023-01-19T20:51:09.073Z,99961.25
2023-01-19T20:53:36.917Z,99972.69
2023-01-19T20:56:09.889Z,99985.47
2023-01-19T20:58:37.415Z,99979.53
2023-01-19T21:01:14.430Z,99982.75
2023-01-19T21:03:42.274Z,99990.16
2023-01-19T21:06:09.622Z,99994.31
2023-01-19T21:08:36.665Z,99992.97
2023-01-19T21:11:04.136Z,99988.59
2023-01-19T21:13:31.621Z,99995.13
2023-01-19T21:15:58.801Z,100000.28
2023-01-19T21:18:27.738Z,100006.34
2023-01-19T21:20:55.255Z,100010.31
2023-01-19T21:23:22.132Z,100012.59
2023-01-19T21:25:54.194Z,100017.22
2023-01-19T21:28:22.610Z,100016.16
2023-01-19T21:30:50.325Z,100013.06
2023-01-19T21:33:17.477Z,100025.88
2023-01-19T21:35:52.046Z,100021.75
2023-01-19T21:38:19.667Z,100028.19
2023-01-19T21:40:46.541Z,100033.13
2023-01-19T21:43:13.721Z,100039.13
2023-01-19T21:45:42.988Z,100042.28
2023-01-19T21:48:09.997Z,100041.47
2023-01-19T21:50:36.559Z,100041.31
2023-01-19T21:53:05.866Z,100037.53
2023-01-19T21:55:33.126Z,100046.94
2023-01-19T21:57:59.671Z,100039.72
2023-01-19T22:00:29.390Z,100045.47
2023-01-19T22:03:03.816Z,100044.66
2023-01-19T22:05:36.525Z,100047.38
2023-01-19T22:08:04.822Z,100053.47
2023-01-19T22:10:31.531Z,100047.69
2023-01-19T22:12:58.141Z,100049.88
2023-01-19T22:15:24.787Z,100057.16
2023-01-19T22:17:51.523Z,100065.66
2023-01-19T22:20:18.197Z,100060.69
2023-01-19T22:22:45.203Z,100067.44
2023-01-19T22:25:12.420Z,100067.94
2023-01-19T22:27:39.252Z,100070.22
2023-01-19T22:30:06.570Z,100070.66
2023-01-19T22:32:33.157Z,100072.50
2023-01-19T22:34:59.669Z,100081.41
2023-01-19T22:37:26.236Z,100076.56
2023-01-19T22:39:53.219Z,100078.13
2023-01-19T22:42:19.849Z,100075.88
2023-01-19T22:44:46.816Z,100078.03
2023-01-19T22:47:13.898Z,100082.91
2023-01-19T22:49:40.690Z,100082.56
2023-01-19T22:52:07.521Z,100093.47
2023-01-19T22:54:34.211Z,100080.88
2023-01-19T22:57:00.862Z,100087.38
2023-01-19T22:59:27.564Z,100086.00
2023-01-19T23:01:54.432Z,100091.72
2023-01-19T23:04:21.115Z,100086.44
2023-01-19T23:06:50.337Z,100092.16
2023-01-19T23:09:18.288Z,100093.06
2023-01-19T23:11:51.166Z,100077.44
2023-01-19T23:14:20.971Z,100092.53
2023-01-19T23:16:47.787Z,100097.91
2023-01-19T23:19:16.943Z,100081.06
2023-01-19T23:21:44.467Z,100091.22
2023-01-19T23:24:11.646Z,100092.28
2023-01-19T23:26:38.535Z,100095.50
2023-01-19T23:29:07.988Z,100093.31
2023-01-19T23:31:36.881Z,100101.34
2023-01-19T23:34:06.355Z,100098.91
2023-01-19T23:36:35.063Z,100104.09
2023-01-19T23:39:05.056Z,100107.28
2023-01-19T23:41:34.472Z,100110.03
2023-01-19T23:44:01.339Z,100107.28
2023-01-19T23:46:28.611Z,100109.53
2023-01-19T23:48:55.467Z,100116.13
2023-01-19T23:51:24.531Z,100119.50
2023-01-19T23:53:51.811Z,100116.88
2023-01-19T23:56:22.799Z,100121.56
2023-01-19T23:59:07.486Z,100123.53
